createdAt,value
2023-02-19T00:01:38.499Z,11.00
2023-02-19T00:06:38.800Z,8.80
2023-02-19T00:09:07.387Z,6.40
2023-02-19T00:11:35.859Z,11.30
2023-02-19T00:14:04.988Z,11.60
2023-02-19T00:16:37.089Z,8.90
2023-02-19T00:19:09.001Z,7.70
2023-02-19T00:21:37.508Z,8.60
2023-02-19T00:24:08.875Z,8.20
2023-02-19T00:26:40.042Z,9.70
2023-02-19T00:29:12.738Z,8.30
2023-02-19T00:31:44.824Z,10.90
2023-02-19T00:34:14.487Z,7.80
2023-02-19T00:36:44.118Z,9.10
2023-02-19T00:39:18.387Z,7.60
2023-02-19T00:41:47.214Z,9.10
2023-02-19T00:44:16.498Z,9.90
2023-02-19T00:46:48.163Z,8.90
2023-02-19T00:49:23.428Z,9.30
2023-02-19T00:51:52.993Z,7.40
2023-02-19T00:54:22.864Z,7.80
2023-02-19T00:56:51.800Z,9.80
2023-02-19T00:59:21.081Z,8.40
2023-02-19T01:01:49.942Z,8.20
2023-02-19T01:04:19.069Z,9.20
2023-02-19T01:06:49.108Z,8.10
2023-02-19T01:09:17.692Z,7.40
2023-02-19T01:11:46.342Z,13.30
2023-02-19T01:14:14.886Z,11.10
2023-02-19T01:16:43.427Z,13.90
2023-02-19T01:19:12.249Z,9.80
2023-02-19T01:21:41.416Z,13.50
2023-02-19T01:27:42.153Z,11.70
2023-02-19T01:30:11.441Z,12.40
2023-02-19T01:32:40.022Z,9.80
2023-02-19T01:35:08.913Z,10.70
2023-02-19T01:37:37.509Z,9.40
2023-02-19T01:40:06.560Z,11.10
2023-02-19T01:42:34.995Z,8.60
2023-02-19T01:45:26.934Z,8.70
2023-02-19T01:48:18.937Z,8.10
2023-02-19T01:51:00.456Z,9.40
2023-02-19T01:53:34.411Z,9.60
2023-02-19T01:56:03.694Z,8.50
2023-02-19T01:58:35.426Z,9.70
2023-02-19T02:01:07.571Z,9.80
2023-02-19T02:03:38.744Z,11.70
2023-02-19T02:06:43.312Z,9.10
2023-02-19T02:09:30.802Z,12.60
2023-02-19T02:11:59.539Z,13.10
2023-02-19T02:14:32.215Z,11.00
2023-02-19T02:17:43.861Z,14.20
2023-02-19T02:20:15.401Z,17.30
2023-02-19T02:23:17.526Z,12.20
2023-02-19T02:26:04.124Z,12.00
2023-02-19T02:28:35.880Z,13.00
2023-02-19T02:31:19.744Z,11.90
2023-02-19T02:34:49.714Z,11.60
2023-02-19T02:37:18.363Z,10.80
2023-02-19T02:39:47.927Z,9.70
2023-02-19T02:42:28.192Z,12.50
2023-02-19T02:45:37.945Z,10.70
2023-02-19T02:48:28.770Z,14.30
2023-02-19T02:51:04.670Z,7.30
2023-02-19T02:54:33.466Z,6.90
2023-02-19T02:57:04.572Z,6.90
2023-02-19T02:59:39.835Z,5.30
2023-02-19T03:02:24.302Z,6.80
2023-02-19T03:05:43.107Z,7.10
2023-02-19T03:08:59.257Z,5.60
2023-02-19T03:11:49.569Z,5.10
2023-02-19T03:14:55.217Z,5.20
2023-02-19T03:18:12.494Z,5.20
2023-02-19T03:20:46.885Z,4.40
2023-02-19T03:23:18.887Z,4.70
2023-02-19T03:26:03.482Z,4.00
2023-02-19T03:29:11.967Z,7.40
2023-02-19T03:31:44.801Z,3.60
2023-02-19T03:34:23.042Z,5.00
2023-02-19T03:37:02.279Z,3.80
2023-02-19T03:39:30.764Z,4.30
2023-02-19T03:42:10.787Z,4.80
2023-02-19T03:45:21.574Z,4.30
2023-02-19T03:48:27.926Z,3.80
2023-02-19T03:51:05.753Z,4.10
2023-02-19T03:53:45.988Z,5.60
2023-02-19T03:56:30.844Z,4.90
2023-02-19T03:59:31.085Z,3.60
2023-02-19T04:02:10.122Z,3.80
2023-02-19T04:05:01.331Z,5.00
2023-02-19T04:07:36.955Z,5.20
2023-02-19T04:10:08.365Z,7.90
2023-02-19T04:12:44.707Z,5.70
2023-02-19T04:15:21.165Z,5.30
2023-02-19T04:18:00.131Z,4.20
2023-02-19T04:20:34.500Z,4.20
2023-02-19T04:23:03.648Z,5.20
2023-02-19T04:25:33.706Z,6.00
2023-02-19T04:28:03.473Z,4.10
2023-02-19T04:30:32.038Z,4.80
2023-02-19T04:33:00.567Z,4.70
2023-02-19T04:35:29.000Z,4.60
2023-02-19T04:37:57.962Z,5.60
2023-02-19T04:40:27.094Z,4.40
2023-02-19T04:42:55.661Z,5.70
2023-02-19T04:45:25.169Z,3.70
2023-02-19T04:47:59.029Z,6.30
2023-02-19T04:50:28.889Z,6.10
2023-02-19T04:52:57.585Z,4.00
2023-02-19T04:55:26.096Z,6.80
2023-02-19T04:57:54.663Z,5.00
2023-02-19T05:00:23.229Z,3.90
2023-02-19T05:02:51.776Z,4.10
2023-02-19T05:05:20.837Z,5.50
2023-02-19T05:07:49.947Z,3.70
2023-02-19T05:10:19.989Z,5.90
2023-02-19T05:12:48.809Z,4.90
2023-02-19T05:15:18.639Z,5.10
2023-02-19T05:17:47.105Z,5.50
2023-02-19T05:20:15.839Z,4.20
2023-02-19T05:22:44.411Z,5.40
2023-02-19T05:25:12.923Z,4.10
2023-02-19T05:27:41.406Z,4.10
2023-02-19T05:30:11.683Z,4.20
2023-02-19T05:32:40.197Z,5.00
2023-02-19T05:35:08.834Z,6.10
2023-02-19T05:37:37.415Z,5.30
2023-02-19T05:40:06.450Z,5.20
2023-02-19T05:42:37.849Z,4.20
2023-02-19T05:45:07.987Z,4.60
2023-02-19T05:47:36.429Z,5.90
2023-02-19T05:50:07.715Z,4.50
2023-02-19T05:52:36.230Z,5.30
2023-02-19T05:55:06.106Z,3.70
2023-02-19T05:57:43.359Z,6.50
2023-02-19T06:00:19.500Z,5.20
2023-02-19T06:02:48.359Z,6.50
2023-02-19T06:05:20.065Z,5.80
2023-02-19T06:07:50.698Z,6.50
2023-02-19T06:10:19.479Z,6.30
2023-02-19T06:12:47.969Z,7.00
2023-02-19T06:15:17.414Z,5.90
2023-02-19T06:17:46.512Z,9.40
2023-02-19T06:20:15.503Z,6.70
2023-02-19T06:22:52.334Z,6.70
2023-02-19T06:25:21.093Z,5.10
2023-02-19T06:27:49.650Z,7.20
2023-02-19T06:30:18.385Z,7.10
2023-02-19T06:33:13.043Z,5.30
2023-02-19T06:35:42.609Z,6.40
2023-02-19T06:38:12.649Z,5.50
2023-02-19T06:40:41.474Z,6.00
2023-02-19T06:43:10.023Z,4.20
2023-02-19T06:45:39.047Z,4.90
2023-02-19T06:48:07.619Z,4.70
2023-02-19T06:50:36.711Z,5.50
2023-02-19T06:53:05.369Z,4.40
2023-02-19T06:55:36.175Z,3.00
2023-02-19T06:58:04.884Z,4.80
2023-02-19T07:00:33.966Z,3.20
2023-02-19T07:03:05.201Z,3.30
2023-02-19T07:05:36.768Z,2.40
2023-02-19T07:08:30.865Z,4.60
2023-02-19T07:11:00.077Z,4.60
2023-02-19T07:13:29.093Z,3.30
2023-02-19T07:16:11.833Z,5.40
2023-02-19T07:18:41.414Z,3.30
2023-02-19T07:21:14.661Z,3.60
2023-02-19T07:23:46.825Z,3.10
2023-02-19T07:37:38.036Z,3.90
2023-02-19T07:40:07.558Z,2.50
2023-02-19T07:43:29.976Z,5.00
2023-02-19T07:45:58.682Z,4.60
2023-02-19T07:48:33.278Z,6.90
2023-02-19T07:51:14.014Z,4.40
2023-02-19T07:53:42.698Z,6.80
2023-02-19T07:56:13.148Z,4.90
2023-02-19T07:58:42.037Z,4.10
2023-02-19T08:01:43.234Z,2.90
2023-02-19T08:07:14.326Z,3.80
2023-02-19T08:09:42.931Z,5.10
2023-02-19T08:12:30.448Z,6.10
2023-02-19T08:14:58.920Z,4.60
2023-02-19T08:17:27.499Z,3.80
2023-02-19T08:19:56.067Z,2.30
2023-02-19T08:22:24.677Z,3.40
2023-02-19T08:24:53.267Z,4.00
2023-02-19T08:27:21.901Z,3.80
2023-02-19T08:29:50.464Z,3.00
2023-02-19T08:32:18.951Z,3.00
2023-02-19T08:34:47.481Z,2.60
2023-02-19T08:37:15.919Z,3.00
2023-02-19T08:39:44.379Z,4.50
2023-02-19T08:42:12.912Z,5.00
2023-02-19T08:44:41.389Z,4.90
2023-02-19T08:47:09.753Z,3.90
2023-02-19T08:49:38.202Z,3.30
2023-02-19T08:52:06.695Z,3.60
2023-02-19T08:54:37.174Z,3.90
2023-02-19T17:53:36.202Z,66.60
2023-02-19T17:56:05.363Z,66.00
2023-02-19T17:58:35.017Z,58.70
2023-02-19T18:01:03.746Z,56.10
2023-02-19T18:03:32.390Z,54.90
2023-02-19T18:06:01.039Z,54.20
2023-02-19T18:08:36.166Z,62.60
2023-02-19T18:11:08.036Z,56.90
2023-02-19T18:13:36.931Z,40.00
2023-02-19T18:16:06.542Z,72.60
2023-02-19T18:18:35.110Z,74.20
2023-02-19T18:21:04.937Z,62.90
2023-02-19T18:23:33.696Z,30.90
2023-02-19T18:26:02.745Z,26.20
2023-02-19T18:28:31.476Z,20.20
2023-02-19T18:31:17.334Z,17.10
2023-02-19T18:34:21.812Z,16.50
2023-02-19T18:37:05.621Z,20.30
2023-02-19T18:39:41.934Z,16.60
2023-02-19T18:42:28.965Z,11.00
2023-02-19T18:45:42.775Z,15.00
2023-02-19T18:48:33.979Z,11.80
2023-02-19T18:51:16.168Z,14.30
2023-02-19T18:53:52.730Z,12.80
2023-02-19T18:56:33.567Z,12.60
2023-02-19T18:59:13.489Z,11.00
2023-02-19T19:01:48.802Z,13.40
2023-02-19T19:04:24.407Z,8.50
2023-02-19T19:07:23.099Z,8.20
2023-02-19T19:09:59.828Z,4.40
2023-02-19T19:13:23.919Z,4.80
2023-02-19T19:15:57.075Z,5.50
2023-02-19T19:18:27.967Z,6.60
2023-02-19T19:21:32.617Z,4.60
2023-02-19T19:24:17.225Z,5.60
2023-02-19T19:26:51.980Z,5.70
2023-02-19T19:29:22.516Z,8.40
2023-02-19T19:31:52.882Z,7.20
2023-02-19T19:34:23.746Z,5.30
2023-02-19T19:36:52.952Z,6.60
2023-02-19T19:39:21.484Z,5.90
2023-02-19T19:42:15.363Z,5.10
2023-02-19T19:45:00.000Z,6.60
2023-02-19T19:47:32.585Z,7.70
2023-02-19T19:50:01.488Z,5.60
2023-02-19T19:52:30.181Z,5.80
2023-02-19T19:55:00.997Z,5.30
2023-02-19T19:57:29.717Z,4.20
2023-02-19T19:59:58.387Z,4.60
2023-02-19T20:02:32.599Z,5.30
2023-02-19T20:05:11.239Z,8.70
2023-02-19T20:07:58.549Z,4.00
2023-02-19T20:10:45.444Z,2.00
2023-02-19T20:13:25.822Z,2.00
2023-02-19T20:16:11.647Z,1.80
2023-02-19T20:18:48.903Z,4.00
2023-02-19T20:21:20.191Z,3.60
2023-02-19T20:23:48.817Z,4.50
2023-02-19T20:26:27.083Z,10.80
2023-02-19T20:28:56.811Z,3.00
2023-02-19T20:31:25.734Z,4.00
2023-02-19T20:33:54.409Z,4.80
2023-02-19T20:36:28.927Z,4.00
2023-02-19T20:38:57.638Z,6.80
2023-02-19T20:41:27.141Z,4.10
2023-02-19T20:43:58.614Z,5.10
2023-02-19T20:46:31.805Z,13.80
2023-02-19T20:49:01.109Z,9.20
2023-02-19T20:51:31.602Z,5.70
2023-02-19T20:54:01.013Z,4.70
2023-02-19T20:56:30.069Z,5.70
2023-02-19T20:58:58.940Z,1.70
2023-02-19T21:01:28.150Z,4.10
2023-02-19T21:03:57.103Z,5.90
2023-02-19T21:06:25.769Z,4.50
2023-02-19T21:08:55.989Z,4.60
2023-02-19T21:11:25.205Z,2.60
2023-02-19T21:13:56.863Z,5.60
2023-02-19T21:16:30.835Z,3.50
2023-02-19T21:19:01.399Z,3.60
2023-02-19T21:21:31.860Z,3.70
2023-02-19T21:24:01.425Z,5.90
2023-02-19T21:26:38.630Z,6.00
2023-02-19T21:29:10.995Z,3.40
2023-02-19T21:31:43.291Z,2.80
2023-02-19T21:34:15.275Z,11.90
2023-02-19T21:36:44.838Z,8.60
2023-02-19T21:39:17.153Z,8.00
2023-02-19T21:41:45.901Z,9.40
2023-02-19T21:44:15.154Z,8.50
2023-02-19T21:46:44.407Z,7.40
2023-02-19T21:49:13.330Z,8.90
2023-02-19T21:53:55.670Z,7.80
2023-02-19T21:56:26.299Z,7.80
2023-02-19T21:58:54.765Z,7.20
2023-02-19T22:01:33.805Z,7.70
2023-02-19T22:04:02.406Z,8.80
2023-02-19T22:06:31.913Z,10.20
2023-02-19T22:09:01.454Z,9.40
2023-02-19T22:11:29.970Z,9.30
2023-02-19T22:13:58.855Z,9.10
2023-02-19T22:16:28.810Z,11.60
2023-02-19T22:18:59.645Z,8.60
2023-02-19T22:21:33.866Z,7.20
2023-02-19T22:24:03.593Z,6.90
2023-02-19T22:26:37.422Z,9.10
2023-02-19T22:29:07.232Z,7.40
2023-02-19T22:31:36.305Z,11.00
2023-02-19T22:34:05.426Z,10.10
2023-02-19T22:36:40.579Z,10.00
2023-02-19T22:39:18.722Z,14.30
2023-02-19T22:41:47.937Z,10.60
2023-02-19T22:44:16.887Z,10.80
2023-02-19T22:46:56.082Z,10.20
2023-02-19T22:49:25.615Z,12.10
2023-02-19T22:51:58.831Z,15.00
2023-02-19T22:54:27.718Z,14.10
2023-02-19T22:56:56.586Z,14.20
2023-02-19T22:59:25.205Z,11.60
2023-02-19T23:01:54.619Z,14.50
2023-02-19T23:04:25.439Z,13.30
2023-02-19T23:06:53.988Z,15.90
2023-02-19T23:09:29.003Z,16.40
2023-02-19T23:12:11.298Z,15.40
2023-02-19T23:14:39.765Z,18.80
2023-02-19T23:17:08.606Z,20.70
2023-02-19T23:19:38.089Z,25.30
2023-02-19T23:22:06.967Z,18.20
2023-02-19T23:24:35.557Z,21.10
2023-02-19T23:27:04.106Z,21.90
2023-02-19T23:29:32.721Z,18.60
2023-02-19T23:32:01.290Z,17.20
2023-02-19T23:34:29.865Z,14.40
2023-02-19T23:37:00.409Z,20.80
2023-02-19T23:39:29.420Z,10.30
2023-02-19T23:41:58.440Z,8.80
2023-02-19T23:44:27.042Z,13.30
2023-02-19T23:46:55.592Z,12.70
2023-02-19T23:49:24.488Z,11.10
2023-02-19T23:51:53.096Z,13.80
2023-02-19T23:54:21.969Z,8.40
2023-02-19T23:56:50.478Z,14.90
2023-02-19T23:59:19.041Z,2.90
